»·PEaware :: N148WT KSNA-KGCN

N148WT :: KSNA-KGCN

FLIGHT INFORMATION

Flight Status: Arrived
Operator: Privately registered:
United States
More flights under this callsign
Pilot: Vlad D. (11271)
Aircraft: Unknown
(B60T)
More flights by this aircraft type
Origin: KSNA John Wayne-Orange Co
United States
Destination: KGCN Grand Canyon Natl Park
United States
More flights between these airports :: More routes between these airports
Route: +MUSEL7 DAG GFS PGS GCN
File this flight plan on PilotEdge
Remarks:
Altitude:
(Current/Filed)
21,000ft
Speed:
(Current/Filed)
270kts
Departed: 23-May-16 05:28 PM
Arrived: 23-May-16 06:50 PM
Distance/Time
Traveled:
314nm/1:22
Distance/Time
To Go:
Arrived

Flight Plot

Page will automatically refresh every two minutes.

Flight plan parsing failed; only flown route is shown


Map Options




Map Legend


Flown Route
Filed Route
Departure Airport
Arrival Airport
Navaid (VOR, NDB)
Fix

Horizontal Profiles

Position Reports

Time Latitude Longitude Heading Altitude Ground
Speed
23-May-16 16:51 33.674983 -117.871503 219 59ft 0kts
23-May-16 16:52 33.674983 -117.871503 219 59ft 0kts
23-May-16 16:53 33.674983 -117.871503 219 59ft 0kts
23-May-16 16:54 33.674983 -117.871503 219 59ft 0kts
23-May-16 16:55 33.674982 -117.871504 219 59ft 0kts
23-May-16 16:56 33.674982 -117.871504 219 59ft 0kts
23-May-16 16:57 33.674982 -117.871504 219 59ft 0kts
23-May-16 16:58 33.674982 -117.871504 219 59ft 0kts
23-May-16 16:59 33.674982 -117.871504 219 59ft 0kts
23-May-16 17:00 33.674982 -117.871504 219 59ft 0kts
23-May-16 17:01 33.674982 -117.871505 219 59ft 0kts
23-May-16 17:02 33.674979 -117.871507 219 59ft 0kts
23-May-16 17:03 33.674977 -117.871509 219 59ft 0kts
23-May-16 17:04 33.674975 -117.871511 219 59ft 0kts
23-May-16 17:05 33.674972 -117.871514 219 59ft 0kts
23-May-16 17:06 33.674970 -117.871516 219 59ft 0kts
23-May-16 17:07 33.674968 -117.871519 219 59ft 0kts
23-May-16 17:08 33.674965 -117.871521 219 59ft 0kts
23-May-16 17:09 33.674963 -117.871523 219 59ft 0kts
23-May-16 17:10 33.674961 -117.871526 219 59ft 0kts
23-May-16 17:11 33.674758 -117.871456 130 59ft 4kts
23-May-16 17:12 33.675383 -117.870577 27 59ft 4kts
23-May-16 17:13 33.676697 -117.869766 35 59ft 5kts
23-May-16 17:14 33.676517 -117.869303 191 59ft 0kts
23-May-16 17:15 33.676514 -117.869304 190 59ft 0kts
23-May-16 17:16 33.676511 -117.869305 190 59ft 0kts
23-May-16 17:17 33.676504 -117.869306 190 59ft 0kts
23-May-16 17:18 33.676501 -117.869307 190 59ft 0kts
23-May-16 17:19 33.676700 -117.869701 357 59ft 4kts
23-May-16 17:20 33.678121 -117.868891 25 59ft 6kts
23-May-16 17:21 33.679434 -117.868079 26 59ft 4kts
23-May-16 17:22 33.680476 -117.867439 26 59ft 4kts
23-May-16 17:23 33.680822 -117.866434 116 59ft 2kts
23-May-16 17:24 33.680805 -117.866393 117 59ft 0kts
23-May-16 17:25 33.680385 -117.865861 207 59ft 0kts
23-May-16 17:26 33.659441 -117.878919 205 812ft 116kts
23-May-16 17:27 33.630321 -117.890685 189 2358ft 101kts
23-May-16 17:28 33.599216 -117.896576 195 4454ft 135kts
23-May-16 17:29 33.585490 -117.940964 262 6503ft 156kts
23-May-16 17:30 33.580493 -117.992607 278 8497ft 155kts
23-May-16 17:31 33.616869 -118.006181 11 10516ft 166kts
23-May-16 17:32 33.658925 -118.016298 319 12524ft 153kts
23-May-16 17:33 33.702096 -118.035971 337 14554ft 177kts
23-May-16 17:34 33.753634 -118.048019 337 16580ft 197kts
23-May-16 17:35 33.808595 -118.032900 33 18488ft 236kts
23-May-16 17:36 33.862206 -117.983672 31 20199ft 245kts
23-May-16 17:37 33.919706 -117.931548 32 20960ft 280kts
23-May-16 17:38 33.984223 -117.872895 32 20954ft 294kts
23-May-16 17:39 34.049594 -117.813418 34 20959ft 293kts
23-May-16 17:40 34.108957 -117.746218 47 20968ft 293kts
23-May-16 17:41 34.163582 -117.672540 47 20954ft 294kts
23-May-16 17:42 34.218231 -117.598757 47 20942ft 294kts
23-May-16 17:43 34.272826 -117.524906 47 20919ft 294kts
23-May-16 17:44 34.327361 -117.451000 47 20914ft 294kts
23-May-16 17:45 34.381670 -117.377214 47 20907ft 294kts
23-May-16 17:46 34.436167 -117.303025 47 20901ft 294kts
23-May-16 17:47 34.490745 -117.228571 47 20898ft 295kts
23-May-16 17:48 34.545246 -117.154062 47 20909ft 294kts
23-May-16 17:49 34.599541 -117.079675 47 20902ft 295kts
23-May-16 17:50 34.654015 -117.004885 47 20886ft 295kts
23-May-16 17:51 34.708480 -116.929943 47 20861ft 295kts
23-May-16 17:52 34.762874 -116.854934 48 20834ft 294kts
23-May-16 17:53 34.817076 -116.780031 48 20821ft 294kts
23-May-16 17:54 34.870993 -116.705359 48 20817ft 294kts
23-May-16 17:55 34.925062 -116.630314 48 20817ft 294kts
23-May-16 17:56 34.966861 -116.547254 87 20819ft 285kts
23-May-16 17:57 34.978520 -116.451162 86 20815ft 286kts
23-May-16 17:58 34.990652 -116.354995 86 20814ft 286kts
23-May-16 17:59 35.002595 -116.258886 86 20818ft 286kts
23-May-16 18:00 35.014443 -116.162753 86 20819ft 286kts
23-May-16 18:01 35.026233 -116.066277 86 20792ft 290kts
23-May-16 18:02 35.038002 -115.969655 87 20810ft 285kts
23-May-16 18:03 35.049614 -115.873277 87 20796ft 289kts
23-May-16 18:04 35.059277 -115.792885 87 20801ft 285kts
23-May-16 18:05 35.072584 -115.681123 87 20794ft 285kts
23-May-16 18:06 35.082010 -115.601452 87 20794ft 285kts
23-May-16 18:07 35.095152 -115.489591 87 20770ft 284kts
23-May-16 18:08 35.106356 -115.393421 87 20755ft 287kts
23-May-16 18:09 35.115665 -115.313165 87 20755ft 285kts
23-May-16 18:10 35.126701 -115.217099 87 20758ft 289kts
23-May-16 18:11 35.148365 -115.122368 72 20749ft 295kts
23-May-16 18:12 35.177028 -115.029490 72 20749ft 289kts
23-May-16 18:13 35.205477 -114.937219 72 20744ft 289kts
23-May-16 18:14 35.233810 -114.845204 73 20742ft 289kts
23-May-16 18:15 35.262178 -114.752809 73 20735ft 289kts
23-May-16 18:16 35.290481 -114.660338 73 20729ft 289kts
23-May-16 18:17 35.318642 -114.568042 73 20729ft 288kts
23-May-16 18:18 35.346591 -114.476146 73 20749ft 288kts
23-May-16 18:19 35.374555 -114.383905 73 20767ft 288kts
23-May-16 18:20 35.402412 -114.291727 73 20789ft 287kts
23-May-16 18:21 35.430154 -114.199623 73 20813ft 287kts
23-May-16 18:22 35.457747 -114.107717 73 20828ft 287kts
23-May-16 18:23 35.485373 -114.015407 73 20837ft 288kts
23-May-16 18:24 35.512916 -113.923076 73 20841ft 287kts
23-May-16 18:25 35.540332 -113.830873 73 20865ft 287kts
23-May-16 18:26 35.567618 -113.738799 73 20864ft 287kts
23-May-16 18:27 35.594959 -113.646251 73 20870ft 287kts
23-May-16 18:28 35.622218 -113.553659 74 20884ft 287kts
23-May-16 18:29 35.646266 -113.460098 78 20907ft 286kts
23-May-16 18:30 35.668818 -113.366403 77 20933ft 286kts
23-May-16 18:31 35.691773 -113.272270 77 20945ft 287kts
23-May-16 18:32 35.714736 -113.177976 77 20958ft 287kts
23-May-16 18:33 35.737672 -113.083520 77 20970ft 287kts
23-May-16 18:34 35.760431 -112.989465 77 20118ft 282kts
23-May-16 18:35 35.782644 -112.897202 77 18816ft 279kts
23-May-16 18:36 35.804441 -112.806428 77 17412ft 273kts
23-May-16 18:37 35.825593 -112.717982 77 15918ft 266kts
23-May-16 18:38 35.845968 -112.632517 77 14685ft 258kts
23-May-16 18:39 35.866075 -112.547716 76 13296ft 255kts
23-May-16 18:40 35.885441 -112.466059 76 11886ft 240kts
23-May-16 18:41 35.902885 -112.392262 76 11010ft 201kts
23-May-16 18:42 35.917476 -112.330199 76 10541ft 193kts
23-May-16 18:43 35.933810 -112.264183 75 9222ft 201kts
23-May-16 18:44 35.945702 -112.200633 80 8315ft 186kts
23-May-16 18:45 35.969037 -112.157249 45 8021ft 153kts
23-May-16 18:46 35.993888 -112.118813 110 7816ft 128kts
23-May-16 18:47 35.972283 -112.125741 217 6991ft 95kts
23-May-16 18:48 35.956893 -112.141967 154 6612ft 6kts
23-May-16 18:49 35.956447 -112.141390 129 6612ft 0kts
23-May-16 18:50 35.956795 -112.140363 40 6612ft 6kts
23-May-16 18:51 35.957365 -112.139075 190 6612ft 0kts
23-May-16 18:52 35.957265 -112.139155 223 6612ft 1kts
23-May-16 18:53 35.957218 -112.139205 219 6612ft 0kts

Navigation Log

Ident Type
Flight plan parsing failed, navigation log unavailable